Time;durP1;ratioP1;P1;durP2;ratioP2;P2;SDS_P1;SDS_P2;PMS_P1;PMS_P2;Temp;Humidity;BMP_temperature;BMP_pressure;BME280_temperature;BME280_humidity;BME280_pressure;Samples;Min_cycle;Max_cycle;Signal;HPM_P1;HPM_P2
2022/03/25 00:02:24;;;;;;;33.15;17.17;;;;;;;-142.75;100.00;78998.16;5049712;28;20118;-69
2022/03/25 00:04:49;;;;;;;34.77;16.60;;;;;;;-142.75;100.00;79008.00;5049562;28;20486;-68
2022/03/25 00:07:15;;;;;;;31.10;16.95;;;;;;;-142.75;100.00;79004.06;5049250;28;20424;-69
2022/03/25 00:09:40;;;;;;;35.50;17.52;;;;;;;-142.75;100.00;79027.69;5049324;28;20426;-69
2022/03/25 00:12:06;;;;;;;33.73;17.60;;;;;;;-142.75;100.00;79023.75;5034248;28;20027;-70
2022/03/25 00:14:32;;;;;;;31.80;16.53;;;;;;;-142.75;100.00;79021.78;5029782;28;20037;-69
2022/03/25 00:16:57;;;;;;;32.25;16.15;;;;;;;-142.75;100.00;79041.50;5028508;28;20443;-69
2022/03/25 00:19:22;;;;;;;31.17;16.10;;;;;;;-142.75;100.00;79051.34;5029387;28;20017;-69
2022/03/25 00:21:47;;;;;;;35.23;16.57;;;;;;;-142.75;100.00;79059.22;5029394;28;20037;-69
2022/03/25 00:24:13;;;;;;;35.90;16.70;;;;;;;-142.75;100.00;79053.31;5029620;28;20275;-68
2022/03/25 00:26:38;;;;;;;32.87;16.20;;;;;;;-142.75;100.00;79051.34;5029573;28;20280;-69
2022/03/25 00:29:04;;;;;;;35.70;17.23;;;;;;;-142.75;100.00;79049.38;5029494;28;20272;-69
2022/03/25 00:31:30;;;;;;;32.90;16.37;;;;;;;-142.75;100.00;79047.41;5029195;28;20288;-68
2022/03/25 00:33:55;;;;;;;33.97;17.13;;;;;;;-142.75;100.00;79063.16;5029079;28;20033;-69
2022/03/25 00:36:23;;;;;;;34.72;17.77;;;;;;;-142.75;100.00;79057.25;5029681;28;20483;-69
2022/03/25 00:38:49;;;;;;;32.10;16.30;;;;;;;-142.75;100.00;79061.19;5029267;28;20049;-68
2022/03/25 00:41:16;;;;;;;34.92;19.33;;;;;;;-142.75;100.00;79067.09;5029366;28;20021;-69
2022/03/25 00:43:43;;;;;;;31.93;17.30;;;;;;;-142.75;100.00;79069.06;5029431;28;20033;-69
2022/03/25 00:46:10;;;;;;;33.53;18.17;;;;;;;-142.75;100.00;79086.78;5029431;28;20399;-69
2022/03/25 00:48:36;;;;;;;33.33;16.17;;;;;;;-142.75;100.00;79094.69;5028994;28;20037;-68
2022/03/25 00:51:02;;;;;;;35.88;17.58;;;;;;;-142.75;100.00;79090.72;5029059;28;20025;-69
2022/03/25 00:53:28;;;;;;;34.30;16.42;;;;;;;-142.75;100.00;79098.63;5029029;28;20099;-69
2022/03/25 00:55:53;;;;;;;38.45;17.80;;;;;;;-142.75;100.00;79106.50;5029359;28;20057;-69
2022/03/25 00:58:19;;;;;;;37.03;18.33;;;;;;;-142.75;100.00;79108.47;5029167;28;20044;-69
2022/03/25 01:00:45;;;;;;;42.88;20.33;;;;;;;-142.75;100.00;79106.50;5029301;28;20063;-69
2022/03/25 01:03:11;;;;;;;41.75;19.77;;;;;;;-142.75;100.00;79122.25;5029205;28;20022;-69
2022/03/25 01:05:36;;;;;;;;;;;;;;;-142.75;100.00;79122.25;5029767;28;20514;-68
2022/03/25 01:08:02;;;;;;;39.50;19.00;;;;;;;-142.75;100.00;79120.28;5029287;28;19913;-69
2022/03/25 01:10:27;;;;;;;41.88;20.63;;;;;;;-142.75;100.00;79124.22;5027984;28;20116;-69
2022/03/25 01:12:53;;;;;;;42.10;20.73;;;;;;;-142.75;100.00;79128.16;5029023;28;20018;-69
2022/03/25 01:15:18;;;;;;;39.80;20.10;;;;;;;-142.75;100.00;79122.25;5029310;28;20443;-69
2022/03/25 01:17:43;;;;;;;46.53;21.97;;;;;;;-142.75;100.00;79130.13;5029297;28;20268;-68
2022/03/25 01:20:09;;;;;;;42.53;20.70;;;;;;;-142.75;100.00;79134.06;5028855;28;20472;-69
2022/03/25 01:22:35;;;;;;;45.45;21.48;;;;;;;-142.75;100.00;79145.88;5027614;28;20060;-69
2022/03/25 01:25:01;;;;;;;45.28;21.90;;;;;;;-142.75;100.00;79147.84;5029099;28;20061;-69
2022/03/25 01:27:26;;;;;;;40.72;20.45;;;;;;;-142.75;100.00;79163.63;5029111;28;20549;-68
2022/03/25 01:29:51;;;;;;;47.25;21.83;;;;;;;-142.75;100.00;79157.72;5028773;28;20124;-69
2022/03/25 01:32:16;;;;;;;48.03;21.60;;;;;;;-142.75;100.00;79163.63;5029883;28;20453;-70
2022/03/25 01:34:42;;;;;;;45.47;21.42;;;;;;;-142.75;100.00;79161.66;5048729;28;20345;-70
2022/03/25 01:37:08;;;;;;;42.30;20.88;;;;;;;-142.75;100.00;79155.72;5049440;28;20070;-68
2022/03/25 01:39:33;;;;;;;47.08;22.65;;;;;;;-142.75;100.00;79161.66;5033712;28;20515;-69
2022/03/25 01:41:59;;;;;;;44.53;22.48;;;;;;;-142.75;100.00;79171.50;5031482;28;20391;-69
2022/03/25 01:44:26;;;;;;;49.35;23.95;;;;;;;-142.75;100.00;79173.47;5048486;28;20099;-68
2022/03/25 01:46:53;;;;;;;47.80;22.67;;;;;;;-142.75;100.00;79175.44;5051153;28;20025;-69
2022/03/25 01:49:20;;;;;;;48.13;23.43;;;;;;;-142.75;100.00;79181.34;5051940;28;20032;-69
2022/03/25 01:51:48;;;;;;;51.60;24.57;;;;;;;-142.75;100.00;79175.44;5051886;28;20021;-69
2022/03/25 01:54:30;;;;;;;52.23;25.10;;;;;;;-142.75;100.00;79185.28;5052185;28;20025;-69
2022/03/25 01:57:05;;;;;;;52.77;24.60;;;;;;;-142.75;100.00;79193.16;5050931;28;20063;-69
2022/03/25 01:59:31;;;;;;;47.10;24.57;;;;;;;-142.75;100.00;79191.19;5051811;28;20051;-70
2022/03/25 02:01:57;;;;;;;;;;;;;;;-142.75;100.00;79185.28;5052338;28;20052;-69
2022/03/25 02:04:24;;;;;;;55.20;23.87;;;;;;;-142.75;100.00;79185.28;5067346;28;19983;-69
2022/03/25 02:06:49;;;;;;;48.73;25.53;;;;;;;-142.75;100.00;79185.28;5052399;28;20041;-69
2022/03/25 02:09:15;;;;;;;54.90;23.75;;;;;;;-142.75;100.00;79173.47;5051839;28;20514;-69
2022/03/25 02:11:41;;;;;;;58.05;27.85;;;;;;;-142.75;100.00;79189.22;5051727;28;20095;-69
2022/03/25 02:14:07;;;;;;;58.67;26.97;;;;;;;-142.75;100.00;79185.28;5051827;28;20032;-69
2022/03/25 02:16:37;;;;;;;54.03;25.80;;;;;;;-142.75;100.00;79189.22;5051746;28;20025;-69
2022/03/25 02:19:04;;;;;;;54.67;26.00;;;;;;;-142.75;100.00;79201.03;5050144;28;20123;-69
2022/03/25 02:21:31;;;;;;;;;;;;;;;-142.75;100.00;79204.97;5052044;28;20029;-69
2022/03/25 02:23:56;;;;;;;54.13;24.80;;;;;;;-142.75;100.00;79210.88;5051607;28;19935;-69
2022/03/25 02:26:22;;;;;;;50.80;26.30;;;;;;;-142.75;100.00;79208.91;5051589;28;20692;-68
2022/03/25 02:28:48;;;;;;;54.47;26.47;;;;;;;-142.75;100.00;79212.84;5051255;28;20613;-69
2022/03/25 02:31:15;;;;;;;52.20;27.15;;;;;;;-142.75;100.00;79222.72;5051298;28;20032;-69
2022/03/25 02:33:40;;;;;;;53.47;25.60;;;;;;;-142.75;100.00;79232.56;5051448;28;20043;-69
2022/03/25 02:36:08;;;;;;;50.97;25.87;;;;;;;-142.75;100.00;79232.56;5050086;28;20394;-69
2022/03/25 02:38:33;;;;;;;47.53;23.77;;;;;;;-142.75;100.00;79228.63;5051700;28;20283;-67
2022/03/25 02:40:58;;;;;;;48.40;22.50;;;;;;;-142.75;100.00;79228.63;5051114;28;20025;-68
2022/03/25 02:43:24;;;;;;;45.03;22.38;;;;;;;-142.75;100.00;79228.63;5051188;28;20017;-69
2022/03/25 02:45:49;;;;;;;54.47;24.67;;;;;;;-142.75;100.00;79224.69;5051081;28;20108;-69
2022/03/25 02:48:15;;;;;;;61.50;27.38;;;;;;;-142.75;100.00;79230.59;5048093;28;20286;-69
2022/03/25 02:50:41;;;;;;;50.00;24.42;;;;;;;-142.75;100.00;79240.44;5051027;28;20449;-67
2022/03/25 02:53:06;;;;;;;52.25;26.23;;;;;;;-142.75;100.00;79244.38;5036507;28;20542;-69
2022/03/25 02:55:31;;;;;;;53.67;26.45;;;;;;;-142.75;100.00;79250.28;5036366;28;20061;-68
2022/03/25 02:57:57;;;;;;;53.65;26.42;;;;;;;-142.75;100.00;79256.19;5044560;28;20064;-69
2022/03/25 03:00:26;;;;;;;56.08;28.00;;;;;;;-142.75;100.00;79256.19;5050755;28;20103;-68
2022/03/25 03:02:53;;;;;;;64.60;29.70;;;;;;;-142.75;100.00;79260.13;5050786;28;20099;-69
2022/03/25 03:05:18;;;;;;;57.20;28.57;;;;;;;-142.75;100.00;79260.13;5049407;28;20031;-69
2022/03/25 03:07:48;;;;;;;59.13;28.73;;;;;;;-142.75;100.00;79260.13;5051497;28;20029;-69
2022/03/25 03:10:13;;;;;;;61.90;28.33;;;;;;;-142.75;100.00;79250.28;5050421;28;20279;-69
2022/03/25 03:12:41;;;;;;;61.17;29.90;;;;;;;-142.75;100.00;79271.94;5049306;28;20067;-69
2022/03/25 03:15:07;;;;;;;60.73;29.87;;;;;;;-142.75;100.00;79264.06;5043941;28;20029;-69
2022/03/25 03:17:32;;;;;;;61.67;29.70;;;;;;;-142.75;100.00;79266.03;5030556;28;20025;-68
2022/03/25 03:19:58;;;;;;;61.25;29.42;;;;;;;-142.75;100.00;79275.88;5030487;28;20029;-69
2022/03/25 03:22:23;;;;;;;66.47;31.08;;;;;;;-142.75;100.00;79266.03;5030616;28;20017;-69
2022/03/25 03:24:48;;;;;;;68.13;30.85;;;;;;;-142.75;100.00;79269.97;5029729;28;20029;-70
2022/03/25 03:27:14;;;;;;;63.05;30.38;;;;;;;-142.75;100.00;79269.97;5030543;28;20056;-68
2022/03/25 03:29:40;;;;;;;52.20;27.65;;;;;;;-142.75;100.00;79279.84;5030168;28;20497;-69
2022/03/25 03:32:06;;;;;;;60.70;27.45;;;;;;;-142.75;100.00;79283.78;5030334;28;20028;-69
2022/03/25 03:34:32;;;;;;;56.40;27.00;;;;;;;-142.75;100.00;79283.78;5030263;28;20033;-67
2022/03/25 03:36:57;;;;;;;58.58;28.73;;;;;;;-142.75;100.00;79289.69;5030911;28;20053;-70
2022/03/25 03:39:23;;;;;;;56.13;27.45;;;;;;;-142.75;100.00;79291.66;5030327;28;20053;-69
2022/03/25 03:41:48;;;;;;;60.73;28.87;;;;;;;-142.75;100.00;79297.56;5037186;28;20040;-69
2022/03/25 03:44:13;;;;;;;54.90;27.63;;;;;;;-142.75;100.00;79291.66;5049815;28;20270;-67
2022/03/25 03:46:39;;;;;;;65.10;29.57;;;;;;;-142.75;100.00;79303.47;5048699;28;20332;-68
2022/03/25 03:49:04;;;;;;;66.80;31.58;;;;;;;-142.75;100.00;79303.47;5049746;28;20264;-69
2022/03/25 03:51:31;;;;;;;62.85;30.83;;;;;;;-142.75;100.00;79303.47;5049769;28;20036;-68
2022/03/25 03:53:56;;;;;;;;;;;;;;;-142.75;100.00;79299.53;5050455;28;20029;-69
2022/03/25 03:56:22;;;;;;;65.47;30.57;;;;;;;-142.75;100.00;79289.69;5049871;28;19919;-68
2022/03/25 03:58:47;;;;;;;71.57;33.65;;;;;;;-142.75;100.00;79287.72;5048255;28;20032;-69
2022/03/25 04:01:13;;;;;;;69.47;33.60;;;;;;;-142.75;100.00;79289.69;5049466;28;20028;-68
2022/03/25 04:03:38;;;;;;;73.18;33.15;;;;;;;-142.75;100.00;79293.63;5049768;28;20032;-69
2022/03/25 04:06:03;;;;;;;72.53;34.22;;;;;;;-142.75;100.00;79299.53;5049763;28;20086;-69
2022/03/25 04:08:29;;;;;;;69.22;33.63;;;;;;;-142.75;100.00;79295.59;5050009;28;20037;-68
2022/03/25 04:10:54;;;;;;;65.35;31.05;;;;;;;-142.75;100.00;79295.59;5049514;28;20033;-69
2022/03/25 04:13:20;;;;;;;63.83;30.63;;;;;;;-142.75;100.00;79307.41;5049421;28;20013;-69
2022/03/25 04:15:45;;;;;;;56.17;28.85;;;;;;;-142.75;100.00;79317.25;5049439;28;20067;-68
2022/03/25 04:18:10;;;;;;;53.72;24.23;;;;;;;-142.75;100.00;79329.06;5049377;28;20025;-69
2022/03/25 04:20:36;;;;;;;57.10;26.60;;;;;;;-142.75;100.00;79331.03;5049306;28;20029;-68
2022/03/25 04:23:01;;;;;;;55.17;26.70;;;;;;;-142.75;100.00;79333.00;5049422;28;20263;-68
2022/03/25 04:25:26;;;;;;;53.37;26.47;;;;;;;-142.75;100.00;79335.00;5049472;28;20350;-69
2022/03/25 04:27:54;;;;;;;52.80;26.90;;;;;;;-142.75;100.00;79344.84;5049027;28;20271;-67
2022/03/25 04:30:22;;;;;;;42.13;21.90;;;;;;;-142.75;100.00;79356.66;5049268;28;20028;-69
2022/03/25 04:32:47;;;;;;;38.53;20.97;;;;;;;-142.75;100.00;79372.41;5049177;28;20020;-69
2022/03/25 04:35:13;;;;;;;36.00;20.10;;;;;;;-142.75;100.00;79378.31;5047784;28;20031;-68
2022/03/25 04:37:38;;;;;;;36.22;17.17;;;;;;;-142.75;100.00;79388.16;5036875;28;20026;-69
2022/03/25 04:40:04;;;;;;;32.90;17.88;;;;;;;-142.75;100.00;79384.22;5029269;28;20061;-69
2022/03/25 04:42:29;;;;;;;45.92;22.98;;;;;;;-142.75;100.00;79398.03;5029066;28;20503;-67
2022/03/25 04:44:55;;;;;;;43.13;22.70;;;;;;;-142.75;100.00;79413.78;5028089;28;20029;-68
2022/03/25 04:47:20;;;;;;;54.42;26.00;;;;;;;-142.75;100.00;79421.66;5029588;28;20044;-69
2022/03/25 04:49:46;;;;;;;58.75;28.48;;;;;;;-142.75;100.00;79415.75;5027915;28;20052;-69
2022/03/25 04:52:11;;;;;;;61.27;28.80;;;;;;;-142.75;100.00;79417.72;5051202;22;20046;-66
2022/03/25 04:54:36;;;;;;;62.13;30.17;;;;;;;-142.75;100.00;79431.50;5027863;28;20284;-66
2022/03/25 04:57:02;;;;;;;62.63;32.22;;;;;;;-142.75;100.00;79419.69;5028723;28;20039;-66
2022/03/25 04:59:27;;;;;;;56.72;27.67;;;;;;;-142.75;100.00;79425.59;5027802;28;20036;-66
2022/03/25 05:01:53;;;;;;;53.63;26.83;;;;;;;-142.75;100.00;79429.53;5029280;28;20091;-66
2022/03/25 05:04:18;;;;;;;57.23;26.90;;;;;;;-142.75;100.00;79425.59;5029331;28;20279;-67
2022/03/25 05:06:43;;;;;;;56.08;29.23;;;;;;;-142.75;100.00;79421.66;5029587;28;20391;-66
2022/03/25 05:09:10;;;;;;;58.40;27.77;;;;;;;-142.75;100.00;79401.97;5029594;28;20107;-66
2022/03/25 05:11:36;;;;;;;69.23;32.30;;;;;;;-142.75;100.00;79396.06;5029150;28;20029;-66
2022/03/25 05:14:02;;;;;;;;;;;;;;;-142.75;100.00;79388.16;5030505;28;20032;-66
2022/03/25 05:16:27;;;;;;;70.60;31.97;;;;;;;-142.75;100.00;79384.22;5034090;28;21251;-66
2022/03/25 05:18:52;;;;;;;66.87;31.77;;;;;;;-142.75;100.00;79384.22;5038501;28;20109;-66
2022/03/25 05:21:17;;;;;;;67.80;32.20;;;;;;;-142.75;100.00;79394.09;5030966;28;20545;-66
2022/03/25 05:23:43;;;;;;;61.63;31.27;;;;;;;-142.75;100.00;79396.06;5038829;28;20075;-66
2022/03/25 05:26:08;;;;;;;67.10;31.53;;;;;;;-142.75;100.00;79405.91;5032931;28;20272;-66
2022/03/25 05:28:34;;;;;;;60.03;28.83;;;;;;;-142.75;100.00;79417.72;5034047;28;20071;-66
2022/03/25 05:30:59;;;;;;;57.45;27.45;;;;;;;-142.75;100.00;79417.72;5052630;28;20025;-66
2022/03/25 05:33:24;;;;;;;42.67;22.33;;;;;;;-142.75;100.00;79407.88;5052596;28;20016;-66
2022/03/25 05:35:50;;;;;;;43.05;23.45;;;;;;;-142.75;100.00;79413.78;5034556;28;20534;-67
2022/03/25 05:38:15;;;;;;;46.05;23.38;;;;;;;-142.75;100.00;79411.81;5049915;28;20025;-66
2022/03/25 05:40:40;;;;;;;56.50;26.42;;;;;;;-142.75;100.00;79413.78;5039791;28;20072;-65
2022/03/25 05:43:07;;;;;;;51.88;26.27;;;;;;;-142.75;100.00;79405.91;5041180;28;20021;-65
2022/03/25 05:45:33;;;;;;;56.57;26.70;;;;;;;-142.75;100.00;79413.78;5035612;28;20029;-66
2022/03/25 05:47:58;;;;;;;47.42;23.40;;;;;;;-142.75;100.00;79423.63;5032334;28;20044;-65
2022/03/25 05:50:23;;;;;;;37.27;20.67;;;;;;;-142.75;100.00;79433.47;5036047;28;20052;-65
2022/03/25 05:52:48;;;;;;;36.90;19.87;;;;;;;-142.75;100.00;79445.28;5049498;28;20286;-65
2022/03/25 05:55:16;;;;;;;36.35;19.92;;;;;;;-142.75;100.00;79457.13;5050538;28;20025;-66
2022/03/25 05:57:42;;;;;;;32.50;18.10;;;;;;;-142.75;100.00;79468.94;5040214;28;20021;-66
2022/03/25 06:00:08;;;;;;;41.38;19.48;;;;;;;-142.75;100.00;79461.06;5035562;28;20048;-66
2022/03/25 06:02:34;;;;;;;37.73;19.47;;;;;;;-142.75;100.00;79449.25;5047761;28;20115;-66
2022/03/25 06:04:59;;;;;;;36.60;17.00;;;;;;;-142.75;100.00;79431.50;5043908;28;20158;-63
2022/03/25 06:07:25;;;;;;;58.42;26.48;;;;;;;-142.75;100.00;79407.88;5045629;28;20074;-64
2022/03/25 06:09:51;;;;;;;52.90;28.17;;;;;;;-142.75;100.00;79396.06;5031983;28;20028;-64
2022/03/25 06:12:17;;;;;;;68.97;31.93;;;;;;;-142.75;100.00;79370.44;5049132;28;20051;-64
2022/03/25 06:14:42;;;;;;;59.10;30.47;;;;;;;-142.75;100.00;79352.72;5050565;28;20479;-64
2022/03/25 06:17:07;;;;;;;76.13;34.60;;;;;;;-142.75;100.00;79338.94;5041047;28;20274;-64
2022/03/25 06:19:33;;;;;;;72.00;35.90;;;;;;;-142.75;100.00;79319.22;5033265;28;20276;-64
2022/03/25 06:21:58;;;;;;;84.60;39.05;;;;;;;-142.75;100.00;79305.44;5044399;28;20013;-67
2022/03/25 06:24:24;;;;;;;87.55;39.90;;;;;;;-142.75;100.00;79287.72;5040405;28;20478;-66
2022/03/25 06:26:49;;;;;;;86.70;38.92;;;;;;;-142.75;100.00;79268.00;5035746;28;20132;-64
2022/03/25 06:29:15;;;;;;;76.03;37.35;;;;;;;-142.75;100.00;79256.19;5046052;28;20018;-64
2022/03/25 06:31:40;;;;;;;76.78;35.97;;;;;;;-142.75;100.00;79260.13;5045671;28;20028;-64
2022/03/25 06:34:05;;;;;;;72.33;35.60;;;;;;;-142.75;100.00;79256.19;5040154;28;20040;-64
2022/03/25 06:36:31;;;;;;;66.53;32.73;;;;;;;-142.75;100.00;79252.25;5044187;28;20370;-64
2022/03/25 06:38:56;;;;;;;68.10;32.22;;;;;;;-142.75;100.00;79244.38;5047222;28;20037;-64
2022/03/25 06:41:22;;;;;;;74.95;35.83;;;;;;;-142.75;100.00;79248.31;5032774;28;20033;-67
2022/03/25 06:43:47;;;;;;;67.70;35.13;;;;;;;-142.75;100.00;79240.44;5033581;28;20037;-67
2022/03/25 06:46:14;;;;;;;66.50;33.40;;;;;;;-142.75;100.00;79232.56;5032804;28;20029;-64
2022/03/25 06:48:40;;;;;;;66.80;33.43;;;;;;;-142.75;100.00;79212.84;5030099;28;20280;-65
2022/03/25 06:51:05;;;;;;;68.85;33.30;;;;;;;-142.75;100.00;79212.84;5034850;28;20031;-64
2022/03/25 06:53:31;;;;;;;68.55;35.22;;;;;;;-142.75;100.00;79183.31;5037803;28;20033;-65
2022/03/25 06:55:56;;;;;;;82.18;39.28;;;;;;;-142.75;100.00;79171.50;5037064;28;20036;-65
2022/03/25 06:58:22;;;;;;;87.28;40.10;;;;;;;-142.75;100.00;79139.97;5032641;28;20036;-65
2022/03/25 07:00:48;;;;;;;90.47;42.25;;;;;;;-142.75;100.00;79106.50;5030974;28;20028;-65
2022/03/25 07:03:14;;;;;;;84.15;41.58;;;;;;;-142.75;100.00;79084.81;5029881;28;20026;-65
2022/03/25 07:05:40;;;;;;;89.07;43.88;;;;;;;-142.75;100.00;79059.22;5030503;28;20037;-66
2022/03/25 07:08:05;;;;;;;;;;;;;;;-142.75;100.00;79031.66;5031635;28;20033;-66
2022/03/25 07:10:31;;;;;;;94.53;43.40;;;;;;;-142.75;100.00;79013.91;5036101;28;20375;-66
2022/03/25 07:12:57;;;;;;;97.30;46.20;;;;;;;-142.75;100.00;78990.28;5043423;28;20027;-66
2022/03/25 07:15:24;;;;;;;96.05;43.85;;;;;;;-142.75;100.00;78964.69;5029255;28;20037;-66
2022/03/25 07:17:51;;;;;;;95.93;45.97;;;;;;;-142.75;100.00;78946.94;5029438;28;20044;-66
2022/03/25 07:20:17;;;;;;;87.27;44.70;;;;;;;-142.75;100.00;78950.88;5030032;28;20036;-66
2022/03/25 07:22:42;;;;;;;;;;;;;;;-142.75;100.00;78944.97;5030324;28;20029;-66
2022/03/25 07:25:08;;;;;;;85.57;41.33;;;;;;;-142.75;100.00;78929.22;5029787;28;19920;-66
2022/03/25 07:27:34;;;;;;;90.05;43.92;;;;;;;-142.75;100.00;78905.59;5029936;28;20040;-66
2022/03/25 07:29:59;;;;;;;95.85;45.90;;;;;;;-142.75;100.00;78879.97;5028402;28;20028;-66
2022/03/25 07:32:24;;;;;;;87.45;43.10;;;;;;;-142.75;100.00;78858.31;5029643;28;20024;-67
2022/03/25 07:34:50;;;;;;;91.88;43.38;;;;;;;-142.75;100.00;78836.66;5029760;28;20052;-66
2022/03/25 07:37:15;;;;;;;91.60;46.65;;;;;;;-142.75;100.00;78824.84;5030305;28;20040;-66
2022/03/25 07:39:42;;;;;;;91.88;44.90;;;;;;;-142.75;100.00;78813.00;5030427;28;20064;-66
2022/03/25 07:42:07;;;;;;;89.97;44.90;;;;;;;-142.75;100.00;78793.31;5032646;28;20509;-66
2022/03/25 07:44:34;;;;;;;84.70;43.20;;;;;;;-142.75;100.00;78759.84;5030974;28;20112;-66
2022/03/25 07:46:59;;;;;;;93.83;45.20;;;;;;;-142.75;100.00;78728.31;5031726;28;20479;-66
2022/03/25 07:49:24;;;;;;;87.55;44.30;;;;;;;-142.75;100.00;78698.78;5028215;28;20040;-66
2022/03/25 07:51:50;;;;;;;92.47;44.25;;;;;;;-142.75;100.00;78669.25;5029796;28;20040;-66
2022/03/25 07:54:16;;;;;;;88.47;42.97;;;;;;;-142.75;100.00;78657.41;5029525;28;20036;-66
2022/03/25 07:56:42;;;;;;;85.13;42.20;;;;;;;-142.75;100.00;78655.44;5029341;28;20036;-66
2022/03/25 07:59:08;;;;;;;80.60;42.15;;;;;;;-142.75;100.00;78612.13;5029910;28;20035;-66
2022/03/25 08:01:34;;;;;;;86.07;43.25;;;;;;;-142.75;100.00;78580.59;5029936;28;20104;-65
2022/03/25 08:03:59;;;;;;;80.75;41.78;;;;;;;-142.75;100.00;78558.94;5029134;28;20416;-66
2022/03/25 08:06:24;;;;;;;83.07;42.95;;;;;;;-142.75;100.00;78539.25;5029258;28;20558;-66
2022/03/25 08:08:50;;;;;;;80.53;40.42;;;;;;;-142.75;100.00;78513.66;5029538;28;20099;-66
2022/03/25 08:11:20;;;;;;;81.10;42.53;;;;;;;-142.75;100.00;78507.75;5029208;28;20064;-66
2022/03/25 08:13:47;;;;;;;74.93;40.15;;;;;;;-142.75;100.00;78482.13;5028656;28;20029;-67
2022/03/25 08:16:14;;;;;;;82.50;42.20;;;;;;;-142.75;100.00;78480.16;5027609;28;20045;-67
2022/03/25 08:18:40;;;;;;;81.47;42.15;;;;;;;-142.75;100.00;78486.06;5028479;28;20032;-67
2022/03/25 08:21:06;;;;;;;78.07;39.95;;;;;;;-142.75;100.00;78456.53;5028719;28;20025;-66
2022/03/25 08:29:02;;;;;;;77.05;39.17;;;;;;;-142.75;100.00;78432.91;5028688;28;20032;-65
2022/03/25 08:31:28;;;;;;;79.60;38.88;;;;;;;-142.75;100.00;78401.38;5028776;28;20108;-67
2022/03/25 08:33:54;;;;;;;71.70;37.92;;;;;;;-142.75;100.00;78369.88;5028666;28;20029;-66
2022/03/25 08:36:20;;;;;;;;;;;;;;;-142.75;100.00;78338.38;5029587;28;20030;-66
2022/03/25 08:38:46;;;;;;;74.90;39.08;;;;;;;-142.75;100.00;78328.53;5029475;28;19920;-66
2022/03/25 08:41:12;;;;;;;71.22;38.53;;;;;;;-142.75;100.00;78318.69;5028726;28;20025;-66
2022/03/25 08:43:39;;;;;;;74.95;39.30;;;;;;;-142.75;100.00;78322.63;5027378;28;20038;-66
2022/03/25 08:46:07;;;;;;;71.63;38.78;;;;;;;-142.75;100.00;78302.94;5028515;28;20039;-66
2022/03/25 08:48:33;;;;;;;71.15;37.00;;;;;;;-142.75;100.00;78283.22;5028042;28;20476;-66
2022/03/25 08:50:58;;;;;;;73.90;38.80;;;;;;;-142.75;100.00;78251.72;5028522;28;20056;-66
2022/03/25 08:53:24;;;;;;;75.32;37.17;;;;;;;-142.75;100.00;78259.59;5027202;28;20061;-66
2022/03/25 08:55:49;;;;;;;;;;;;;;;-142.75;100.00;78239.91;5030051;28;20475;-66
2022/03/25 08:58:14;;;;;;;67.03;35.95;;;;;;;-142.75;100.00;78216.28;5032249;28;19927;-66
2022/03/25 09:00:39;;;;;;;;;;;;;;;-142.75;100.00;78200.53;5032848;28;20514;-66
2022/03/25 09:03:05;;;;;;;64.70;33.00;;;;;;;-142.75;100.00;78190.69;5032152;28;20310;-66
2022/03/25 09:05:31;;;;;;;63.95;34.67;;;;;;;-142.75;100.00;78188.72;5032655;28;20432;-66
2022/03/25 09:07:56;;;;;;;;;;;;;;;-142.75;100.00;78172.94;5032987;28;20037;-66
2022/03/25 09:10:21;;;;;;;65.05;33.50;;;;;;;-142.75;100.00;78190.69;5032681;28;20003;-66
2022/03/25 09:12:46;;;;;;;;;;;;;;;-142.75;100.00;78137.50;5033466;28;20036;-66
2022/03/25 09:15:13;;;;;;;63.15;33.92;;;;;;;-142.75;100.00;78111.91;5033136;28;20379;-65
2022/03/25 09:17:39;;;;;;;62.50;33.22;;;;;;;-142.75;100.00;78082.38;5032625;28;20537;-66
2022/03/25 09:20:06;;;;;;;70.07;34.17;;;;;;;-142.75;100.00;78074.50;5032874;28;20083;-66
2022/03/25 09:22:31;;;;;;;;;;;;;;;-142.75;100.00;78062.69;5033058;28;20032;-66
2022/03/25 09:24:57;;;;;;;55.60;30.63;;;;;;;-142.75;100.00;78074.50;5033017;28;19913;-69
2022/03/25 09:27:23;;;;;;;57.85;31.38;;;;;;;-142.75;100.00;78050.84;5033430;28;20037;-66
2022/03/25 09:29:48;;;;;;;61.78;31.98;;;;;;;-142.75;100.00;78052.81;5032848;28;20401;-67
2022/03/25 09:32:13;;;;;;;;;;;;;;;-142.75;100.00;78029.19;5033497;28;20029;-67
2022/03/25 09:37:22;;;;;;;55.20;30.52;;;;;;;-142.75;100.00;77997.69;5033678;28;20040;-66
2022/03/25 09:39:49;;;;;;;55.80;29.55;;;;;;;-142.75;100.00;77968.16;5036005;28;20021;-66
2022/03/25 09:42:15;;;;;;;57.20;31.17;;;;;;;-142.75;100.00;77976.03;5038507;28;20033;-66
2022/03/25 09:44:42;;;;;;;56.33;30.85;;;;;;;-142.75;100.00;77950.44;5052222;28;20070;-66
2022/03/25 09:47:10;;;;;;;58.60;30.10;;;;;;;-142.75;100.00;77985.88;5053193;28;20576;-67
2022/03/25 09:49:37;;;;;;;55.60;29.35;;;;;;;-142.75;100.00;77936.66;5052769;28;20017;-67
2022/03/25 09:52:04;;;;;;;52.35;28.92;;;;;;;-142.75;100.00;77920.91;5052078;28;20115;-66
2022/03/25 09:54:29;;;;;;;49.97;28.23;;;;;;;-142.75;100.00;77907.09;5052245;28;20023;-66
2022/03/25 09:56:54;;;;;;;;;;;;;;;-142.75;100.00;77869.69;5052628;28;20021;-66
2022/03/25 09:59:20;;;;;;;55.38;29.13;;;;;;;-142.75;100.00;77877.56;5051895;28;20065;-67
2022/03/25 10:01:45;;;;;;;;;;;;;;;-142.75;100.00;77875.59;5051824;28;20100;-67
2022/03/25 10:04:36;;;;;;;54.13;28.55;;;;;;;-142.75;98.80;77877.56;5051715;28;19923;-67
2022/03/25 10:07:14;;;;;;;49.88;28.33;;;;;;;-142.75;100.00;77885.44;5047957;28;20066;-67
2022/03/25 10:09:39;;;;;;;50.75;28.00;;;;;;;-142.75;96.68;77859.84;5031922;28;20469;-67
2022/03/25 10:12:22;;;;;;;;;;;;;;;-142.75;92.05;77816.53;5031188;28;20108;-67
2022/03/25 10:14:49;;;;;;;48.78;27.15;;;;;;;-142.75;89.55;77783.06;5041962;28;19924;-67
2022/03/25 10:17:14;;;;;;;45.20;24.92;;;;;;;-142.75;85.20;77779.13;5051722;28;20041;-67
2022/03/25 10:19:46;;;;;;;;;;;;;;;-142.75;81.95;77790.94;5033666;28;20502;-67
2022/03/25 10:22:14;;;;;;;41.63;22.75;;;;;;;-142.75;76.76;77802.75;5031914;28;19932;-67
2022/03/25 10:24:43;;;;;;;47.03;26.20;;;;;;;-142.75;79.99;77787.00;5031901;28;20036;-67
2022/03/25 10:27:08;;;;;;;45.97;24.48;;;;;;;-142.75;74.78;77767.31;5031751;28;20059;-67
2022/03/25 10:29:35;;;;;;;;;;;;;;;-142.75;76.97;77759.44;5031940;28;20147;-67
2022/03/25 10:32:12;;;;;;;43.90;23.20;;;;;;;-142.75;72.15;77727.94;5030718;28;19924;-67
2022/03/25 10:34:39;;;;;;;43.75;23.90;;;;;;;-142.75;75.07;77727.94;5031755;28;20087;-67
2022/03/25 10:37:11;;;;;;;43.35;22.80;;;;;;;-142.75;69.04;77761.41;5031460;28;20538;-68
2022/03/25 10:39:38;;;;;;;44.85;23.30;;;;;;;-142.75;72.74;77747.63;5031335;28;20037;-67
2022/03/25 10:42:06;;;;;;;40.28;22.48;;;;;;;-142.75;70.28;77731.88;5031639;28;20136;-67
2022/03/25 10:44:42;;;;;;;38.83;22.17;;;;;;;-142.75;70.33;77723.97;5030192;28;20505;-67
2022/03/25 10:47:28;;;;;;;38.63;20.08;;;;;;;-142.75;63.05;77735.81;5031587;28;20060;-67
2022/03/25 10:50:10;;;;;;;39.25;20.25;;;;;;;-142.75;65.93;77735.81;5032133;28;20479;-67
2022/03/25 10:52:35;;;;;;;41.47;19.85;;;;;;;-142.75;63.44;77733.84;5031037;28;20113;-67
2022/03/25 10:55:19;;;;;;;32.95;18.90;;;;;;;-142.75;62.78;77696.41;5030128;28;20117;-67
2022/03/25 10:57:50;;;;;;;37.45;18.88;;;;;;;-142.75;60.88;77696.41;5033645;28;20098;-67
2022/03/25 11:00:16;;;;;;;44.25;23.08;;;;;;;-142.75;62.19;77706.25;5031156;28;20100;-67
2022/03/25 11:02:42;;;;;;;40.70;22.73;;;;;;;-142.75;62.71;77674.75;5031800;28;20104;-67
2022/03/25 11:05:09;;;;;;;40.95;20.98;;;;;;;-142.75;62.08;77700.34;5031248;28;20368;-68